KNGP/NGP METAR and TAF weather

Enter ICAO airport designator
Station Type Date Time Source
KNGP METAR 2020/03/31 08:56 UTC NOAA

KNGP 310856Z AUTO 26003KT 4SM BR CLR 22/22 A2989 RMK AO2 SLP120 T02170217 53004


Station Type Date Time Source
KNGP Decoded METAR 2020/03/31 08:56 UTC NOAA

CORPUS CHRISTI NAVAL AIR STN, TX, United States (KNGP) 27-41N 097-17W
Mar 31, 2020 - 04:56 AM EDT / 2020.03.31 0856 UTC
Wind: from the W (260 degrees) at 3 MPH (3 KT):0
Visibility: 4 mile(s):0
Sky conditions: clear
Weather: mist
Temperature: 71.1 F (21.7 C)
Dew Point: 71.1 F (21.7 C)
Relative Humidity: 100%
Pressure (altimeter): 29.89 in. Hg (1012 hPa)
Pressure tendency: 0.01 inches (0.4 hPa) higher than three hours ago
ob: KNGP 310856Z AUTO 26003KT 4SM BR CLR 22/22 A2989 RMK AO2 SLP120 T02170217 53004
cycle: 9

Station Type Date Time Source
KNGP TAF 2020/03/31 09:04 UTC NOAA

TAF
AMD KNGP 3109/0107 VRB03KT 9999 FEW006 FEW030 SCT200 BKN300 QNH2988INS
TEMPO 3109/3113 00000KT 6000 BR SCT006 BKN010 BKN200 OVC300
FM311300 32008KT 9999 FEW006 FEW012 BKN200 BKN300 QNH2992INS
FM311400 34015G21KT 9999 FEW012 SCT200 BKN300 QNH2993INS
FM311600 36013G19KT 9999 SCT200 BKN300 QNH2991INS
TEMPO 3117/3120 02018G25KT
FM312000 03015G21KT 9999 SCT200 BKN300 QNH2989INS
FM010200 02016G24KT 9999 BKN200 BKN300 QNH2993INS
FM010600 04013G19KT 9999 FEW020 SCT200 BKN300 QNH2997INS AUTOMATED SENSOR METWATCH 3109 TIL 3111 T21/3112Z T29/3119Z
AMD 0900 FN20044

Example: see airport list